GMMHGCLP

Guest
Details From GMMH - DAKHLA
To GCLP - Gran Canaria
Flight Number -
Tags generated
Created
Modified
Stats Distance 272 nm / 504 km
Max Altitude 27,600 ft / 8,412 m
Waypoints 4
Social Downloads 6
Likes 0
Share

Download

Looking for another format? Having issues loading an existing format? Contact us
Advertisement - Login to hide

Notes

Basic altitude profile: - Ascent Rate: 2500ft/min - Ascent Speed: 250kts - Cruise Altitude: 35000ft - Cruise Speed: 420kts - Descent Rate: 1500ft/min - Descent Speed: 250kts Options: - Use NATs: yes - Use PACOTS: yes - Use low airways: yes - Use high airways: yes

Route

GMMH ROYAL B600 GDV GCLP

ID Type Via Altitude (ft/m) Position (lat/lon) Dist (leg/tot) Name
O GMMH APT - 0 / 0 23.71829 / -15.93199 - / 0 nm DAKHLA
ROYAL FIX - 27,600 / 8,412 25.00000 / -15.78674 77 / 77 nm
GDV VOR B600 (AWY-LO) 8,500 / 2,591 28.07708 / -15.42899 185 / 263 nm GRAN CANARIA VOR-DME
O GCLP APT - 0 / 0 27.93154 / -15.38559 9 / 272 nm Gran Canaria

Altitude Profile

Advertisement - Login to hide

Weather


0- 5 10 15 20 25 30 35+ Temperature / °C

Clouds and Precipitation
Forecast for 2021-09-23 18:00 UTC. Updated 2 hours ago

Ground ~20,000 ft ~40,000 ft Winds

GMMH

Details ICAO GMMH (VIL)
Name Dakhla Intl
Region Morocco
Timezone Africa/El_Aaiun (UTC+1.0)
Stats Elevation 36 ft / 11 m (AMSL)
Location 23.718400° -15.931900°
Runways 1
Magnetic Variation 4.843° W

METAR

GMMH 231700Z 01016KT CAVOK 24/17 Q1013 NOSIG

Decode

TAF

TAF GMMH 231100Z 2312/2418 05015KT 8000 NSC

Decode

Departure Runways

ID Width Length Bearing (true/mag) Surface Threshold Overrun Markings Lighting
03 142 ft / 43 m 9,834 ft / 2,997 m 22.69° / 27.53° ASPHALT 0 ft / 0 m 0 ft / 0 m PREC-APP EDGE THRESHOLD REIL-OMNI
21 142 ft / 43 m 9,834 ft / 2,997 m 202.69° / 207.54° ASPHALT 0 ft / 0 m 0 ft / 0 m PREC-APP EDGE THRESHOLD REIL-OMNI

GCLP

Details ICAO GCLP (LPA)
Name Gran Canaria
Region Canary Islands
Timezone Atlantic/Canary (UTC+1.0)
Stats Elevation 78 ft / 24 m (AMSL)
Location 27.931600° -15.385600°
Runways 2
Magnetic Variation 4.250° W

METAR

GCLP 231700Z 03020KT 9999 FEW030 SCT045 26/18 Q1014 NOSIG

Decode

TAF

TAF GCLP 231400Z 2315/2415 03014KT 9999 FEW030 TX28/2315Z TN20/2406Z= TAF AMD KLFI 231430Z 2314/2415 26015G20KT 8000 -SHRA BKN010 BKN017 OVC024 QNH2981INS TEMPO 2314/2316 6000 -TSRA OVC014CB BECMG 2315/2316 30009KT 9999 NSW FEW015 FEW025 BKN040 510332 QNH2992INS BECMG 2405/2406 33012KT 9999 SKC QNH2995INS TX24/2414Z TN18/2318Z

Decode

Destination Runways

ID Width Length Bearing (true/mag) Surface Threshold Overrun Markings Lighting
03L 148 ft / 45 m 10,201 ft / 3,109 m 21.35° / 25.60° ASPHALT 0 ft / 0 m 656 ft / 200 m PREC-APP CENTERLINE EDGE THRESHOLD ALSF-I REIL-OMNI
03R 148 ft / 45 m 10,180 ft / 3,103 m 21.32° / 25.57° ASPHALT 0 ft / 0 m 656 ft / 200 m PREC-APP CENTERLINE EDGE THRESHOLD ALSF-I REIL-OMNI
21L 148 ft / 45 m 10,180 ft / 3,103 m 201.33° / 205.58° ASPHALT 0 ft / 0 m 666 ft / 203 m PREC-APP CENTERLINE EDGE THRESHOLD MALS REIL-OMNI
21R 148 ft / 45 m 10,201 ft / 3,109 m 201.35° / 205.61° ASPHALT 0 ft / 0 m 738 ft / 225 m PREC-APP CENTERLINE EDGE THRESHOLD MALS REIL-OMNI

Approach Navaids

Runway Type Ident Frequency Range Bearing (true/mag) Slope Elevation
03L DME ILP 109.90 MHz 18 nm / 33 km - - 102 ft / 31 m (AMSL)
03L LOC-ILS ILP 109.90 MHz 18 nm / 33 km 21.33° / 25.58 ° - 77 ft / 23 m (AMSL)
03L GS ILP 109.90 MHz 10 nm / 19 km 21.66° / 25.91 ° 3.00° 102 ft / 31 m (AMSL)
21R DME RLP 110.70 MHz 18 nm / 33 km - - 57 ft / 17 m (AMSL)
21R LOC-ILS RLP 110.70 MHz 18 nm / 33 km 201.32° / 205.58 ° - 77 ft / 23 m (AMSL)
21R GS RLP 110.70 MHz 10 nm / 19 km 201.66° / 205.91 ° 3.00° 77 ft / 23 m (AMSL)

Popular Alternatives